createdAt,value
2023-03-05T00:00:48.102Z,100959.94
2023-03-05T00:03:17.643Z,100953.88
2023-03-05T00:05:45.782Z,100952.94
2023-03-05T00:08:13.844Z,100936.50
2023-03-05T00:10:41.950Z,100936.50
2023-03-05T00:13:09.980Z,100943.41
2023-03-05T00:15:42.376Z,100940.78
2023-03-05T00:18:10.566Z,100936.44
2023-03-05T00:20:39.935Z,100932.09
2023-03-05T00:23:08.075Z,100928.59
2023-03-05T00:25:37.640Z,100932.03
2023-03-05T00:28:06.066Z,100927.69
2023-03-05T00:30:35.576Z,100916.44
2023-03-05T00:33:03.849Z,100904.31
2023-03-05T00:35:33.655Z,100906.00
2023-03-05T00:38:04.510Z,100906.84
2023-03-05T00:40:35.977Z,100899.06
2023-03-05T00:43:04.361Z,100898.22
2023-03-05T00:45:32.811Z,100895.59
2023-03-05T00:48:01.396Z,100894.69
2023-03-05T00:50:29.865Z,100893.81
2023-03-05T00:52:57.975Z,100886.88
2023-03-05T00:55:28.142Z,100888.63
2023-03-05T00:57:56.254Z,100879.09
2023-03-05T01:00:24.462Z,100888.63
2023-03-05T01:02:52.521Z,100883.47
2023-03-05T01:05:21.298Z,100876.56
2023-03-05T01:07:49.308Z,100874.81
2023-03-05T01:10:17.997Z,100875.69
2023-03-05T01:12:47.386Z,100871.34
2023-03-05T01:15:15.694Z,100873.97
2023-03-05T01:17:43.810Z,100873.97
2023-03-05T01:20:15.073Z,100874.84
2023-03-05T01:22:43.242Z,100878.34
2023-03-05T01:25:11.560Z,100880.09
2023-03-05T01:27:39.812Z,100873.16
2023-03-05T01:30:10.762Z,100880.09
2023-03-05T01:32:38.989Z,100877.53
2023-03-05T01:35:08.613Z,100870.63
2023-03-05T01:37:36.764Z,100869.78
2023-03-05T01:40:06.183Z,100858.50
2023-03-05T01:42:34.542Z,100854.22
2023-03-05T01:45:07.506Z,100842.13
2023-03-05T01:47:37.286Z,100849.91
2023-03-05T01:50:07.153Z,100839.50
2023-03-05T01:52:37.708Z,100836.88
2023-03-05T01:55:09.303Z,100845.53
2023-03-05T01:57:41.702Z,100837.78
2023-03-05T02:00:13.929Z,100832.53
2023-03-05T02:02:44.749Z,100833.41
2023-03-05T02:05:17.495Z,100831.66
2023-03-05T02:07:47.015Z,100826.47
2023-03-05T02:10:17.939Z,100825.59
2023-03-05T02:12:46.450Z,100821.28
2023-03-05T02:15:14.681Z,100816.09
2023-03-05T02:17:44.189Z,100813.50
2023-03-05T02:20:17.978Z,100809.97
2023-03-05T02:22:47.238Z,100816.91
2023-03-05T02:25:18.402Z,100799.56
2023-03-05T02:27:53.602Z,100807.38
2023-03-05T02:30:21.922Z,100798.72
2023-03-05T02:32:50.282Z,100796.94
2023-03-05T02:35:19.874Z,100802.13
2023-03-05T02:37:49.412Z,100797.78
2023-03-05T02:40:18.645Z,100790.00
2023-03-05T02:42:47.002Z,100781.34
2023-03-05T02:45:16.716Z,100777.03
2023-03-05T02:47:44.962Z,100772.69
2023-03-05T02:50:14.069Z,100773.56
2023-03-05T02:52:42.250Z,100770.97
2023-03-05T02:55:16.266Z,100763.16
2023-03-05T02:57:45.673Z,100771.78
2023-03-05T03:00:14.887Z,100764.84
2023-03-05T03:02:43.282Z,100769.22
2023-03-05T03:05:11.801Z,100761.38
2023-03-05T03:07:40.190Z,100766.59
2023-03-05T03:10:09.042Z,100762.25
2023-03-05T03:12:39.915Z,100755.31
2023-03-05T03:15:10.441Z,100751.84
2023-03-05T03:17:39.026Z,100751.00
2023-03-05T03:20:10.375Z,100740.59
2023-03-05T03:22:38.661Z,100738.00
2023-03-05T03:25:07.552Z,100738.00
2023-03-05T03:27:35.811Z,100722.44
2023-03-05T03:30:06.154Z,100724.13
2023-03-05T03:32:34.936Z,100725.03
2023-03-05T03:35:03.299Z,100720.66
2023-03-05T03:37:31.704Z,100718.91
2023-03-05T03:39:59.756Z,100718.91
2023-03-05T03:42:27.905Z,100706.75
2023-03-05T03:44:56.010Z,100711.09
2023-03-05T03:47:25.487Z,100698.09
2023-03-05T03:49:55.167Z,100698.09
2023-03-05T03:52:24.018Z,100692.91
2023-03-05T03:54:53.149Z,100692.03
2023-03-05T03:57:21.308Z,100685.97
2023-03-05T03:59:50.371Z,100691.16
2023-03-05T04:02:18.809Z,100678.16
2023-03-05T04:04:48.387Z,100680.75
2023-03-05T04:07:16.538Z,100670.38
2023-03-05T04:09:44.701Z,100672.97
2023-03-05T04:12:17.938Z,100672.09
2023-03-05T04:14:46.865Z,100663.44
2023-03-05T04:17:16.259Z,100662.63
2023-03-05T04:19:44.790Z,100655.66
2023-03-05T04:22:14.916Z,100659.13
2023-03-05T04:24:43.182Z,100649.59
2023-03-05T04:27:12.029Z,100651.28
2023-03-05T04:29:40.226Z,100646.09
2023-03-05T04:32:09.519Z,100641.72
2023-03-05T04:34:39.375Z,100646.00
2023-03-05T04:37:07.495Z,100639.06
2023-03-05T04:39:37.074Z,100631.28
2023-03-05T04:42:05.350Z,100634.75
2023-03-05T04:44:33.563Z,100633.88
2023-03-05T04:47:01.612Z,100633.03
2023-03-05T04:49:30.391Z,100628.69
2023-03-05T04:51:59.687Z,100630.41
2023-03-05T04:54:28.238Z,100636.47
2023-03-05T04:56:57.642Z,100633.88
2023-03-05T04:59:25.808Z,100628.69
2023-03-05T05:01:53.916Z,100637.31
2023-03-05T05:04:22.093Z,100636.44
2023-03-05T05:06:50.336Z,100635.56
2023-03-05T05:09:18.467Z,100635.56
2023-03-05T05:11:46.543Z,100634.69
2023-03-05T05:14:16.567Z,100637.22
2023-03-05T05:16:44.766Z,100618.22
2023-03-05T05:19:13.089Z,100628.59
2023-03-05T05:21:41.273Z,100621.66
2023-03-05T05:24:09.804Z,100626.84
2023-03-05T05:26:37.890Z,100602.63
2023-03-05T05:29:06.115Z,100612.16
2023-03-05T05:31:35.603Z,100597.47
2023-03-05T05:34:03.761Z,100589.69
2023-03-05T05:36:31.973Z,100585.34
2023-03-05T05:39:00.165Z,100575.88
2023-03-05T05:41:28.275Z,100573.28
2023-03-05T05:43:56.518Z,100569.81
2023-03-05T05:46:25.565Z,100571.56
2023-03-05T05:48:55.169Z,100566.38
2023-03-05T05:51:24.689Z,100569.81
2023-03-05T05:53:53.111Z,100562.03
2023-03-05T05:56:21.367Z,100551.66
2023-03-05T05:58:50.248Z,100550.81
2023-03-05T06:01:21.658Z,100551.66
2023-03-05T06:03:50.148Z,100547.34
2023-03-05T06:06:22.658Z,100547.34
2023-03-05T06:08:52.040Z,100547.34
2023-03-05T06:11:20.981Z,100553.34
2023-03-05T06:13:50.329Z,100547.34
2023-03-05T06:16:21.036Z,100544.72
2023-03-05T06:18:49.404Z,100552.50
2023-03-05T06:21:21.599Z,100552.50
2023-03-05T06:23:50.507Z,100546.44
2023-03-05T06:26:21.138Z,100547.28
2023-03-05T06:28:49.645Z,100546.38
2023-03-05T06:31:19.405Z,100543.78
2023-03-05T06:33:47.663Z,100549.00
2023-03-05T06:36:21.703Z,100539.50
2023-03-05T06:38:52.114Z,100548.16
2023-03-05T06:41:23.359Z,100530.88
2023-03-05T06:43:51.653Z,100532.56
2023-03-05T06:46:22.531Z,100532.56
2023-03-05T06:48:51.811Z,100529.09
2023-03-05T06:51:24.703Z,100525.63
2023-03-05T06:53:54.008Z,100528.22
2023-03-05T06:56:22.997Z,100528.22
2023-03-05T06:58:52.799Z,100530.00
2023-03-05T07:01:23.695Z,100529.13
2023-03-05T07:03:52.879Z,100534.31
2023-03-05T07:06:23.254Z,100526.53
2023-03-05T07:08:51.862Z,100530.88
2023-03-05T07:11:21.894Z,100536.06
2023-03-05T07:13:50.823Z,100530.91
2023-03-05T07:16:21.409Z,100530.03
2023-03-05T07:18:50.138Z,100530.03
2023-03-05T07:21:20.473Z,100533.50
2023-03-05T07:23:50.548Z,100524.03
2023-03-05T07:26:18.921Z,100529.19
2023-03-05T07:28:47.739Z,100525.72
2023-03-05T07:31:19.063Z,100513.66
2023-03-05T07:33:47.888Z,100511.06
2023-03-05T07:36:17.039Z,100515.38
2023-03-05T07:38:45.608Z,100508.47
2023-03-05T07:41:19.833Z,100498.97
2023-03-05T07:43:49.326Z,100499.00
2023-03-05T07:46:20.087Z,100493.81
2023-03-05T07:48:48.370Z,100499.03
2023-03-05T07:51:18.465Z,100494.69
2023-03-05T07:53:47.684Z,100494.69
2023-03-05T07:56:23.436Z,100493.88
2023-03-05T07:58:51.733Z,100492.13
2023-03-05T08:01:20.117Z,100490.41
2023-03-05T08:03:48.329Z,100492.16
2023-03-05T08:06:17.077Z,100489.56
2023-03-05T08:08:45.271Z,100480.94
2023-03-05T08:11:15.513Z,100480.06
2023-03-05T08:13:46.232Z,100478.34
2023-03-05T08:16:16.768Z,100468.81
2023-03-05T08:18:45.343Z,100474.03
2023-03-05T08:21:20.970Z,100476.66
2023-03-05T08:23:49.421Z,100469.72
2023-03-05T08:26:20.441Z,100467.97
2023-03-05T08:28:50.693Z,100476.66
2023-03-05T08:31:21.322Z,100469.75
2023-03-05T08:33:50.331Z,100468.00
2023-03-05T08:36:18.592Z,100468.88
2023-03-05T08:38:48.533Z,100466.31
2023-03-05T08:41:18.298Z,100462.84
2023-03-05T08:43:46.564Z,100465.44
2023-03-05T08:46:18.151Z,100457.66
2023-03-05T08:48:46.517Z,100449.00
2023-03-05T08:51:16.439Z,100433.47
2023-03-05T08:53:46.479Z,100428.25
2023-03-05T08:56:15.363Z,100418.75
2023-03-05T08:58:44.049Z,100413.56
2023-03-05T09:01:12.399Z,100412.69
2023-03-05T09:03:42.596Z,100414.41
2023-03-05T09:06:13.441Z,100402.28
2023-03-05T09:08:41.924Z,100394.50
2023-03-05T09:11:12.742Z,100394.50
2023-03-05T09:13:41.088Z,100391.88
2023-03-05T09:16:12.527Z,100386.69
2023-03-05T09:18:42.684Z,100384.94
2023-03-05T09:21:13.095Z,100387.53
2023-03-05T09:23:42.136Z,100389.25
2023-03-05T09:26:12.192Z,100395.31
2023-03-05T09:28:40.941Z,100386.66
2023-03-05T09:31:10.297Z,100383.22
2023-03-05T09:33:39.387Z,100387.53
2023-03-05T09:36:19.600Z,100384.06
2023-03-05T09:38:47.790Z,100383.19
2023-03-05T09:41:24.832Z,100379.72
2023-03-05T09:44:01.453Z,100378.81
2023-03-05T09:46:42.866Z,100381.41
2023-03-05T09:49:19.040Z,100368.41
2023-03-05T09:51:56.406Z,100364.06
2023-03-05T09:54:31.605Z,100365.78
2023-03-05T09:57:04.904Z,100362.34
2023-03-05T09:59:44.203Z,100356.28
2023-03-05T10:02:19.501Z,100344.13
2023-03-05T10:04:53.555Z,100352.78
2023-03-05T10:07:28.774Z,100350.16
2023-03-05T10:10:00.311Z,100352.78
2023-03-05T10:12:42.443Z,100350.16
2023-03-05T10:15:13.645Z,100340.63
2023-03-05T10:18:06.742Z,100338.03
2023-03-05T10:20:55.112Z,100332.84
2023-03-05T10:23:30.820Z,100337.19
2023-03-05T10:26:06.477Z,100325.06
2023-03-05T10:28:39.736Z,100328.50
2023-03-05T10:31:21.572Z,100328.53
2023-03-05T10:34:02.525Z,100320.72
2023-03-05T10:36:46.831Z,100324.19
2023-03-05T10:39:51.233Z,100317.25
2023-03-05T10:42:31.017Z,100317.25
2023-03-05T10:45:01.801Z,100312.91
2023-03-05T10:47:44.610Z,100305.13
2023-03-05T10:50:18.696Z,100306.84
2023-03-05T10:52:51.799Z,100301.59
2023-03-05T10:55:23.732Z,100290.31
2023-03-05T10:57:52.073Z,100292.91
2023-03-05T11:00:23.305Z,100277.28
2023-03-05T11:02:57.138Z,100285.94
2023-03-05T11:05:45.872Z,100285.03
2023-03-05T11:08:27.211Z,100275.50
2023-03-05T11:11:17.146Z,100280.75
2023-03-05T11:13:53.368Z,100274.66
2023-03-05T11:16:24.634Z,100279.91
2023-03-05T11:19:17.630Z,100270.34
2023-03-05T11:21:46.612Z,100263.34
2023-03-05T11:24:16.828Z,100259.91
2023-03-05T11:26:50.427Z,100252.97
2023-03-05T11:29:22.488Z,100240.75
2023-03-05T11:31:51.334Z,100236.41
2023-03-05T11:34:26.036Z,100228.56
2023-03-05T11:37:21.055Z,100232.91
2023-03-05T11:39:50.257Z,100215.53
2023-03-05T11:42:25.320Z,100221.53
2023-03-05T11:44:56.419Z,100215.47
2023-03-05T11:47:29.824Z,100215.47
2023-03-05T11:50:14.358Z,100207.69
2023-03-05T11:52:48.040Z,100208.56
2023-03-05T11:55:19.528Z,100212.84
2023-03-05T11:57:54.487Z,100217.25
2023-03-05T12:00:31.090Z,100199.09
2023-03-05T12:03:03.631Z,100196.47
2023-03-05T12:05:33.414Z,100190.34
2023-03-05T12:08:03.510Z,100180.78
2023-03-05T12:10:32.136Z,100178.19
2023-03-05T12:13:07.063Z,100177.34
2023-03-05T12:15:47.749Z,100183.44
2023-03-05T12:18:26.030Z,100176.56
2023-03-05T12:21:04.249Z,100179.19
2023-03-05T12:23:46.607Z,100172.25
2023-03-05T12:26:15.088Z,100160.13
2023-03-05T12:28:59.696Z,100147.13
2023-03-05T12:31:37.836Z,100159.25
2023-03-05T12:34:44.152Z,100152.28
2023-03-05T12:37:13.327Z,100143.56
2023-03-05T12:39:52.676Z,100127.03
2023-03-05T12:42:46.237Z,100105.19
2023-03-05T12:45:36.727Z,100094.59
2023-03-05T12:48:42.234Z,100092.41
2023-03-05T12:51:14.650Z,100081.72
2023-03-05T12:53:42.859Z,100072.84
2023-03-05T12:56:25.022Z,100066.56
2023-03-05T12:58:58.060Z,100066.38
2023-03-05T13:01:44.028Z,100054.88
2023-03-05T13:04:19.818Z,100057.34
2023-03-05T13:06:58.425Z,100046.78
2023-03-05T13:09:29.979Z,100050.06
2023-03-05T13:11:59.386Z,100038.72
2023-03-05T13:14:33.852Z,100037.91
2023-03-05T13:17:04.837Z,100048.28
2023-03-05T13:19:36.098Z,100037.63
2023-03-05T13:22:06.099Z,100038.41
2023-03-05T13:24:35.414Z,100027.84
2023-03-05T13:27:03.617Z,100033.81
2023-03-05T13:29:31.779Z,100021.66
2023-03-05T13:32:01.781Z,100021.03
2023-03-05T13:34:46.099Z,100019.53
2023-03-05T13:37:19.294Z,100010.06
2023-03-05T13:39:51.125Z,100017.22
2023-03-05T13:42:21.374Z,100011.31
2023-03-05T13:44:55.510Z,100004.56
2023-03-05T13:47:26.356Z,100003.81
2023-03-05T13:50:00.108Z,99993.47
2023-03-05T13:52:30.909Z,99993.56
2023-03-05T13:54:59.893Z,99991.13
2023-03-05T13:57:37.356Z,99984.28
2023-03-05T14:00:07.404Z,99971.16
2023-03-05T14:02:36.216Z,99968.44
2023-03-05T14:05:14.850Z,99963.03
2023-03-05T14:07:44.146Z,99957.81
2023-03-05T14:10:30.458Z,99956.97
2023-03-05T14:12:59.857Z,99965.75
2023-03-05T14:15:29.946Z,99960.75
2023-03-05T14:18:22.819Z,99963.53
2023-03-05T14:21:12.312Z,99959.44
2023-03-05T14:23:43.563Z,99955.19
2023-03-05T14:26:21.934Z,99950.81
2023-03-05T14:28:53.989Z,99951.56
2023-03-05T14:31:23.842Z,99947.22
2023-03-05T14:33:53.754Z,99937.69
2023-03-05T14:36:25.613Z,99946.44
2023-03-05T14:38:54.917Z,99932.63
2023-03-05T14:41:32.098Z,99926.59
2023-03-05T14:44:00.277Z,99933.56
2023-03-05T14:46:28.742Z,99928.38
2023-03-05T14:48:56.949Z,99929.25
2023-03-05T14:51:26.711Z,99916.19
2023-03-05T14:53:55.137Z,99916.19
2023-03-05T14:56:26.706Z,99910.09
2023-03-05T14:58:55.463Z,99911.81
2023-03-05T15:01:24.416Z,99912.66
2023-03-05T15:03:52.798Z,99903.09
2023-03-05T15:06:26.342Z,99897.88
2023-03-05T15:08:55.779Z,99901.38
2023-03-05T15:11:23.864Z,99897.88
2023-03-05T15:13:51.943Z,99897.88
2023-03-05T15:16:20.900Z,99892.72
2023-03-05T15:18:49.643Z,99893.66
2023-03-05T15:21:17.778Z,99885.09
2023-03-05T15:23:46.070Z,99882.53
2023-03-05T15:26:16.499Z,99885.16
2023-03-05T15:28:45.029Z,99876.53
2023-03-05T15:31:13.147Z,99882.66
2023-03-05T15:33:41.911Z,99874.84
2023-03-05T15:36:10.652Z,99867.94
2023-03-05T15:38:39.096Z,99868.84
2023-03-05T15:41:07.456Z,99874.09
2023-03-05T15:43:38.447Z,99856.72
2023-03-05T15:46:07.095Z,99856.78
2023-03-05T15:48:35.218Z,99843.78
2023-03-05T15:51:06.765Z,99835.97
2023-03-05T15:53:34.998Z,99826.47
2023-03-05T15:56:03.176Z,99833.38
2023-03-05T15:58:31.346Z,99831.66
2023-03-05T16:01:01.004Z,99820.34
2023-03-05T16:03:29.230Z,99815.94
2023-03-05T16:05:57.369Z,99815.91
2023-03-05T16:08:25.620Z,99817.56
2023-03-05T16:10:53.812Z,99813.22
2023-03-05T16:13:21.949Z,99803.72
2023-03-05T16:15:53.247Z,99811.59
2023-03-05T16:18:24.454Z,99805.56
2023-03-05T16:20:53.363Z,99814.28
2023-03-05T16:23:22.350Z,99810.88
2023-03-05T16:25:50.764Z,99810.91
2023-03-05T16:28:19.164Z,99808.38
2023-03-05T16:30:54.134Z,99807.63
2023-03-05T16:33:23.844Z,99795.59
2023-03-05T16:36:09.254Z,99786.94
2023-03-05T16:38:37.455Z,99780.00
2023-03-05T16:41:08.591Z,99777.41
2023-03-05T16:43:37.103Z,99778.34
2023-03-05T16:46:05.294Z,99769.69
2023-03-05T16:48:35.842Z,99764.56
2023-03-05T16:51:04.280Z,99760.31
2023-03-05T16:53:32.910Z,99762.97
2023-03-05T16:56:04.172Z,99760.38
2023-03-05T16:58:33.409Z,99755.16
2023-03-05T17:01:01.829Z,99758.63
2023-03-05T17:03:30.063Z,99756.03
2023-03-05T17:05:59.529Z,99749.97
2023-03-05T17:08:27.702Z,99746.56
2023-03-05T17:10:55.733Z,99744.84
2023-03-05T17:13:23.874Z,99740.53
2023-03-05T17:15:53.332Z,99738.81
2023-03-05T17:18:24.403Z,99742.28
2023-03-05T17:20:52.575Z,99729.31
2023-03-05T17:23:22.095Z,99731.06
2023-03-05T17:25:50.233Z,99727.63
2023-03-05T17:28:18.742Z,99730.22
2023-03-05T17:30:47.496Z,99726.75
2023-03-05T17:33:15.630Z,99728.47
2023-03-05T17:35:47.215Z,99715.47
2023-03-05T17:38:15.692Z,99717.22
2023-03-05T17:40:45.253Z,99711.19
2023-03-05T17:43:13.562Z,99712.09
2023-03-05T17:45:42.502Z,99709.59
2023-03-05T17:48:12.250Z,99710.53
2023-03-05T17:50:40.809Z,99707.19
2023-03-05T17:53:09.684Z,99707.31
2023-03-05T17:55:37.842Z,99714.28
2023-03-05T17:58:07.382Z,99712.63
2023-03-05T18:00:36.041Z,99708.25
2023-03-05T18:03:04.390Z,99705.59
2023-03-05T18:05:33.102Z,99706.47
2023-03-05T18:08:03.444Z,99709.84
2023-03-05T18:10:32.629Z,99698.53
2023-03-05T18:13:00.987Z,99694.19
2023-03-05T18:15:31.211Z,99695.06
2023-03-05T18:17:59.720Z,99688.09
2023-03-05T18:20:31.758Z,99688.94
2023-03-05T18:23:01.511Z,99690.69
2023-03-05T18:25:31.897Z,99686.38
2023-03-05T18:28:00.851Z,99679.50
2023-03-05T18:30:31.349Z,99684.78
2023-03-05T18:32:59.624Z,99678.75
2023-03-05T18:35:29.405Z,99682.31
2023-03-05T18:37:58.168Z,99683.28
2023-03-05T18:40:29.770Z,99682.47
2023-03-05T18:43:01.147Z,99686.84
2023-03-05T18:45:34.047Z,99679.94
2023-03-05T18:48:02.275Z,99672.97
2023-03-05T18:50:31.312Z,99672.13
2023-03-05T18:52:59.520Z,99673.81
2023-03-05T18:55:29.663Z,99673.81
2023-03-05T18:57:58.296Z,99673.78
2023-03-05T19:00:28.167Z,99664.22
2023-03-05T19:02:58.549Z,99665.09
2023-03-05T19:05:27.944Z,99665.97
2023-03-05T19:07:56.838Z,99663.38
2023-03-05T19:10:25.901Z,99666.84
2023-03-05T19:13:05.638Z,99659.97
2023-03-05T19:15:33.875Z,99653.97
2023-03-05T19:18:03.311Z,99652.31
2023-03-05T19:20:31.546Z,99647.97
2023-03-05T19:22:59.685Z,99649.69
2023-03-05T19:25:27.837Z,99652.19
2023-03-05T19:27:55.944Z,99648.75
2023-03-05T19:30:24.201Z,99649.59
2023-03-05T19:32:52.502Z,99648.75
2023-03-05T19:35:22.381Z,99641.78
2023-03-05T19:37:50.463Z,99640.00
2023-03-05T19:40:19.060Z,99626.16
2023-03-05T19:42:47.189Z,99633.94
2023-03-05T19:45:15.379Z,99637.38
2023-03-05T19:47:43.460Z,99630.38
2023-03-05T19:50:16.544Z,99629.44
2023-03-05T19:52:46.176Z,99622.47
2023-03-05T19:55:14.309Z,99635.50
2023-03-05T19:57:42.579Z,99634.66
2023-03-05T20:00:11.576Z,99632.03
2023-03-05T20:02:39.793Z,99631.22
2023-03-05T20:05:08.729Z,99627.72
2023-03-05T20:07:36.852Z,99636.44
2023-03-05T20:10:07.214Z,99626.09
2023-03-05T20:12:36.493Z,99635.56
2023-03-05T20:15:04.829Z,99629.47
2023-03-05T20:17:32.960Z,99631.16
2023-03-05T20:20:01.941Z,99631.16
2023-03-05T20:22:30.068Z,99629.44
2023-03-05T20:24:58.644Z,99630.31
2023-03-05T20:27:28.120Z,99625.16
2023-03-05T20:29:56.200Z,99622.63
2023-03-05T20:32:24.376Z,99616.66
2023-03-05T20:34:52.563Z,99629.75
2023-03-05T20:37:20.950Z,99633.31
2023-03-05T20:39:51.016Z,99638.56
2023-03-05T20:42:19.144Z,99634.28
2023-03-05T20:44:48.575Z,99627.41
2023-03-05T20:47:30.770Z,99630.88
2023-03-05T20:49:59.127Z,99624.84
2023-03-05T20:52:27.216Z,99625.69
2023-03-05T20:54:55.360Z,99612.66
2023-03-05T20:57:23.503Z,99614.31
2023-03-05T20:59:52.845Z,99607.34
2023-03-05T21:02:21.077Z,99609.06
2023-03-05T21:04:49.312Z,99606.47
2023-03-05T21:07:17.412Z,99596.94
2023-03-05T21:09:45.554Z,99589.16
2023-03-05T21:12:14.015Z,99581.38
2023-03-05T21:14:42.169Z,99582.28
2023-03-05T21:17:11.752Z,99584.94
2023-03-05T21:19:40.271Z,99585.00
2023-03-05T21:22:08.572Z,99584.13
2023-03-05T21:24:52.034Z,99588.53
2023-03-05T21:27:20.496Z,99585.03
2023-03-05T21:29:48.624Z,99576.38
2023-03-05T21:32:18.101Z,99574.66
2023-03-05T21:34:46.226Z,99574.69
2023-03-05T21:37:14.484Z,99572.91
2023-03-05T21:39:42.585Z,99569.47
2023-03-05T21:42:10.962Z,99576.38
2023-03-05T21:44:39.083Z,99569.47
2023-03-05T21:47:07.336Z,99566.84
2023-03-05T21:49:36.694Z,99572.88
2023-03-05T21:52:09.370Z,99558.06
2023-03-05T21:54:37.725Z,99560.56
2023-03-05T21:57:07.138Z,99563.09
2023-03-05T21:59:35.389Z,99558.66
2023-03-05T22:02:03.560Z,99560.41
2023-03-05T22:04:31.748Z,99558.66
2023-03-05T22:07:01.264Z,99545.69
2023-03-05T22:09:29.317Z,99547.50
2023-03-05T22:11:57.446Z,99541.34
2023-03-05T22:14:25.603Z,99554.31
2023-03-05T22:16:56.969Z,99544.81
2023-03-05T22:19:25.205Z,99540.47
2023-03-05T22:21:53.292Z,99536.22
2023-03-05T22:24:25.054Z,99538.84
2023-03-05T22:26:53.263Z,99536.22
2023-03-05T22:29:21.334Z,99536.22
2023-03-05T22:31:49.664Z,99531.91
2023-03-05T22:34:17.729Z,99533.72
2023-03-05T22:36:45.924Z,99525.91
2023-03-05T22:39:14.023Z,99522.41
2023-03-05T22:41:43.931Z,99520.66
2023-03-05T22:44:12.053Z,99512.84
2023-03-05T22:46:40.232Z,99510.19
2023-03-05T22:49:08.271Z,99512.78
2023-03-05T22:51:36.361Z,99517.16
2023-03-05T22:54:04.583Z,99505.00
2023-03-05T22:56:32.797Z,99497.97
2023-03-05T22:59:02.152Z,99504.03
2023-03-05T23:01:30.323Z,99501.41
2023-03-05T23:04:04.018Z,99497.91
2023-03-05T23:06:32.229Z,99501.34
2023-03-05T23:09:00.500Z,99494.44
2023-03-05T23:11:28.610Z,99496.13
2023-03-05T23:13:56.693Z,99490.94
2023-03-05T23:16:26.390Z,99487.44
2023-03-05T23:18:54.852Z,99492.66
2023-03-05T23:21:23.009Z,99483.13
2023-03-05T23:23:53.107Z,99480.50
2023-03-05T23:26:21.253Z,99475.25
2023-03-05T23:28:49.304Z,99482.22
2023-03-05T23:31:18.897Z,99475.25
2023-03-05T23:33:48.431Z,99476.13
2023-03-05T23:36:19.910Z,99477.03
2023-03-05T23:38:48.851Z,99474.44
2023-03-05T23:41:16.921Z,99472.69
2023-03-05T23:43:45.097Z,99473.53
2023-03-05T23:46:13.687Z,99469.16
2023-03-05T23:48:42.153Z,99470.03
2023-03-05T23:51:12.324Z,99468.22
2023-03-05T23:53:40.507Z,99466.41
2023-03-05T23:56:11.376Z,99447.25
2023-03-05T23:58:40.109Z,99448.06
